sensor_id;sensor_type;location;lat;lon;timestamp;P1;durP1;ratioP1;P2;durP2;ratioP2
21420;SDS011;10871;50.144;8.428;2023-03-01T00:02:11;17.90;;;10.15;;
21420;SDS011;10871;50.144;8.428;2023-03-01T00:04:38;18.95;;;10.95;;
21420;SDS011;10871;50.144;8.428;2023-03-01T00:07:04;15.15;;;9.93;;
21420;SDS011;10871;50.144;8.428;2023-03-01T00:09:31;18.55;;;11.00;;
21420;SDS011;10871;50.144;8.428;2023-03-01T00:11:57;17.02;;;10.48;;
21420;SDS011;10871;50.144;8.428;2023-03-01T00:14:24;18.63;;;11.35;;
21420;SDS011;10871;50.144;8.428;2023-03-01T00:16:51;16.45;;;11.02;;
21420;SDS011;10871;50.144;8.428;2023-03-01T00:19:18;18.23;;;11.20;;
21420;SDS011;10871;50.144;8.428;2023-03-01T00:21:45;17.92;;;11.15;;
21420;SDS011;10871;50.144;8.428;2023-03-01T00:24:12;15.93;;;11.15;;
21420;SDS011;10871;50.144;8.428;2023-03-01T00:26:38;17.00;;;10.77;;
21420;SDS011;10871;50.144;8.428;2023-03-01T00:29:04;19.52;;;11.20;;
21420;SDS011;10871;50.144;8.428;2023-03-01T00:31:32;21.42;;;11.23;;
21420;SDS011;10871;50.144;8.428;2023-03-01T00:33:59;20.40;;;11.10;;
21420;SDS011;10871;50.144;8.428;2023-03-01T00:36:27;16.50;;;11.15;;
21420;SDS011;10871;50.144;8.428;2023-03-01T00:38:54;15.80;;;11.13;;
21420;SDS011;10871;50.144;8.428;2023-03-01T00:41:22;16.88;;;11.48;;
21420;SDS011;10871;50.144;8.428;2023-03-01T00:43:52;18.65;;;11.63;;
21420;SDS011;10871;50.144;8.428;2023-03-01T00:46:19;18.10;;;10.93;;
21420;SDS011;10871;50.144;8.428;2023-03-01T00:48:46;18.27;;;12.00;;
21420;SDS011;10871;50.144;8.428;2023-03-01T00:51:15;18.25;;;11.10;;
21420;SDS011;10871;50.144;8.428;2023-03-01T00:53:42;18.80;;;11.50;;
21420;SDS011;10871;50.144;8.428;2023-03-01T00:56:09;19.60;;;11.75;;
21420;SDS011;10871;50.144;8.428;2023-03-01T00:58:36;19.70;;;11.55;;
21420;SDS011;10871;50.144;8.428;2023-03-01T01:01:17;18.02;;;11.07;;
21420;SDS011;10871;50.144;8.428;2023-03-01T01:03:48;19.92;;;11.93;;
21420;SDS011;10871;50.144;8.428;2023-03-01T01:06:19;16.98;;;11.60;;
21420;SDS011;10871;50.144;8.428;2023-03-01T01:08:46;20.00;;;12.25;;
21420;SDS011;10871;50.144;8.428;2023-03-01T01:11:13;18.45;;;11.70;;
21420;SDS011;10871;50.144;8.428;2023-03-01T01:13:40;17.92;;;11.35;;
21420;SDS011;10871;50.144;8.428;2023-03-01T01:16:07;19.77;;;12.57;;
21420;SDS011;10871;50.144;8.428;2023-03-01T01:18:34;21.63;;;12.00;;
21420;SDS011;10871;50.144;8.428;2023-03-01T01:21:05;21.17;;;11.95;;
21420;SDS011;10871;50.144;8.428;2023-03-01T01:23:32;19.63;;;11.98;;
21420;SDS011;10871;50.144;8.428;2023-03-01T01:26:06;18.58;;;11.65;;
21420;SDS011;10871;50.144;8.428;2023-03-01T01:28:32;21.35;;;12.82;;
21420;SDS011;10871;50.144;8.428;2023-03-01T01:30:59;20.42;;;12.40;;
21420;SDS011;10871;50.144;8.428;2023-03-01T01:33:26;20.98;;;12.25;;
21420;SDS011;10871;50.144;8.428;2023-03-01T01:35:53;19.08;;;11.85;;
21420;SDS011;10871;50.144;8.428;2023-03-01T01:38:20;20.98;;;12.13;;
21420;SDS011;10871;50.144;8.428;2023-03-01T01:40:48;21.08;;;12.30;;
21420;SDS011;10871;50.144;8.428;2023-03-01T01:43:20;19.00;;;12.65;;
21420;SDS011;10871;50.144;8.428;2023-03-01T01:45:47;19.65;;;12.40;;
21420;SDS011;10871;50.144;8.428;2023-03-01T01:48:19;18.05;;;11.90;;
21420;SDS011;10871;50.144;8.428;2023-03-01T01:50:48;18.08;;;12.50;;
21420;SDS011;10871;50.144;8.428;2023-03-01T01:53:17;19.52;;;11.85;;
21420;SDS011;10871;50.144;8.428;2023-03-01T01:55:45;23.20;;;13.38;;
21420;SDS011;10871;50.144;8.428;2023-03-01T01:58:14;21.90;;;13.60;;
21420;SDS011;10871;50.144;8.428;2023-03-01T02:00:44;17.40;;;12.32;;
21420;SDS011;10871;50.144;8.428;2023-03-01T02:03:14;20.48;;;12.60;;
21420;SDS011;10871;50.144;8.428;2023-03-01T02:05:51;23.42;;;13.00;;
21420;SDS011;10871;50.144;8.428;2023-03-01T02:08:21;20.05;;;12.15;;
21420;SDS011;10871;50.144;8.428;2023-03-01T02:10:49;24.50;;;12.80;;
21420;SDS011;10871;50.144;8.428;2023-03-01T02:13:16;22.83;;;13.23;;
21420;SDS011;10871;50.144;8.428;2023-03-01T02:15:43;19.10;;;12.85;;
21420;SDS011;10871;50.144;8.428;2023-03-01T02:18:13;21.50;;;13.50;;
21420;SDS011;10871;50.144;8.428;2023-03-01T02:20:44;23.00;;;13.82;;
21420;SDS011;10871;50.144;8.428;2023-03-01T02:23:16;20.08;;;12.98;;
21420;SDS011;10871;50.144;8.428;2023-03-01T02:28:26;19.02;;;12.40;;
21420;SDS011;10871;50.144;8.428;2023-03-01T02:30:53;22.70;;;13.43;;
21420;SDS011;10871;50.144;8.428;2023-03-01T02:33:39;20.00;;;12.77;;
21420;SDS011;10871;50.144;8.428;2023-03-01T02:36:14;21.83;;;12.77;;
21420;SDS011;10871;50.144;8.428;2023-03-01T02:38:42;22.02;;;13.02;;
21420;SDS011;10871;50.144;8.428;2023-03-01T02:41:10;21.70;;;13.10;;
21420;SDS011;10871;50.144;8.428;2023-03-01T02:43:37;21.95;;;13.07;;
21420;SDS011;10871;50.144;8.428;2023-03-01T02:46:12;20.85;;;13.05;;
21420;SDS011;10871;50.144;8.428;2023-03-01T02:49:01;21.38;;;12.52;;
21420;SDS011;10871;50.144;8.428;2023-03-01T02:53:58;20.15;;;11.90;;
21420;SDS011;10871;50.144;8.428;2023-03-01T02:56:28;20.45;;;12.77;;
21420;SDS011;10871;50.144;8.428;2023-03-01T02:58:56;20.17;;;13.00;;
21420;SDS011;10871;50.144;8.428;2023-03-01T03:01:28;21.13;;;12.95;;
21420;SDS011;10871;50.144;8.428;2023-03-01T03:04:06;22.42;;;12.68;;
21420;SDS011;10871;50.144;8.428;2023-03-01T03:06:34;20.80;;;13.27;;
21420;SDS011;10871;50.144;8.428;2023-03-01T03:09:01;20.38;;;12.68;;
21420;SDS011;10871;50.144;8.428;2023-03-01T03:11:28;22.88;;;13.57;;
21420;SDS011;10871;50.144;8.428;2023-03-01T03:13:56;20.98;;;12.45;;
21420;SDS011;10871;50.144;8.428;2023-03-01T03:16:24;20.45;;;12.82;;
21420;SDS011;10871;50.144;8.428;2023-03-01T03:18:51;21.10;;;13.20;;
21420;SDS011;10871;50.144;8.428;2023-03-01T03:21:18;25.73;;;14.10;;
21420;SDS011;10871;50.144;8.428;2023-03-01T03:23:45;26.35;;;14.05;;
21420;SDS011;10871;50.144;8.428;2023-03-01T03:26:12;24.63;;;13.60;;
21420;SDS011;10871;50.144;8.428;2023-03-01T03:28:39;23.63;;;13.32;;
21420;SDS011;10871;50.144;8.428;2023-03-01T03:31:07;22.45;;;13.98;;
21420;SDS011;10871;50.144;8.428;2023-03-01T03:33:34;23.88;;;13.45;;
21420;SDS011;10871;50.144;8.428;2023-03-01T03:36:00;24.98;;;14.07;;
21420;SDS011;10871;50.144;8.428;2023-03-01T03:38:27;22.48;;;14.10;;
21420;SDS011;10871;50.144;8.428;2023-03-01T03:41:04;21.75;;;13.52;;
21420;SDS011;10871;50.144;8.428;2023-03-01T03:43:31;25.98;;;13.52;;
21420;SDS011;10871;50.144;8.428;2023-03-01T03:45:58;22.08;;;13.98;;
21420;SDS011;10871;50.144;8.428;2023-03-01T03:48:25;21.40;;;13.52;;
21420;SDS011;10871;50.144;8.428;2023-03-01T03:50:53;21.92;;;13.52;;
21420;SDS011;10871;50.144;8.428;2023-03-01T03:53:20;23.50;;;14.10;;
21420;SDS011;10871;50.144;8.428;2023-03-01T03:55:47;23.17;;;13.85;;
21420;SDS011;10871;50.144;8.428;2023-03-01T03:58:15;24.77;;;13.93;;
21420;SDS011;10871;50.144;8.428;2023-03-01T04:00:43;23.77;;;14.27;;
21420;SDS011;10871;50.144;8.428;2023-03-01T04:03:11;23.35;;;13.95;;
21420;SDS011;10871;50.144;8.428;2023-03-01T04:05:38;23.05;;;13.38;;
21420;SDS011;10871;50.144;8.428;2023-03-01T04:08:06;23.38;;;14.00;;
21420;SDS011;10871;50.144;8.428;2023-03-01T04:10:34;21.95;;;12.98;;
21420;SDS011;10871;50.144;8.428;2023-03-01T04:13:03;23.85;;;13.95;;
21420;SDS011;10871;50.144;8.428;2023-03-01T04:15:30;22.60;;;12.93;;
21420;SDS011;10871;50.144;8.428;2023-03-01T04:17:57;21.15;;;13.13;;
21420;SDS011;10871;50.144;8.428;2023-03-01T04:20:26;21.98;;;13.30;;
21420;SDS011;10871;50.144;8.428;2023-03-01T04:25:52;23.98;;;13.40;;
21420;SDS011;10871;50.144;8.428;2023-03-01T04:28:26;23.23;;;14.02;;
21420;SDS011;10871;50.144;8.428;2023-03-01T04:30:53;22.60;;;13.32;;
21420;SDS011;10871;50.144;8.428;2023-03-01T04:33:20;24.75;;;13.65;;
21420;SDS011;10871;50.144;8.428;2023-03-01T04:35:47;20.80;;;12.98;;
21420;SDS011;10871;50.144;8.428;2023-03-01T04:38:16;24.13;;;12.73;;
21420;SDS011;10871;50.144;8.428;2023-03-01T04:40:43;22.20;;;13.68;;
21420;SDS011;10871;50.144;8.428;2023-03-01T04:43:10;23.40;;;13.35;;
21420;SDS011;10871;50.144;8.428;2023-03-01T04:45:36;24.58;;;13.38;;
21420;SDS011;10871;50.144;8.428;2023-03-01T04:48:03;21.88;;;13.60;;
21420;SDS011;10871;50.144;8.428;2023-03-01T04:50:30;23.25;;;13.88;;
21420;SDS011;10871;50.144;8.428;2023-03-01T04:52:56;21.38;;;13.70;;
21420;SDS011;10871;50.144;8.428;2023-03-01T04:55:26;24.70;;;14.23;;
21420;SDS011;10871;50.144;8.428;2023-03-01T04:57:53;25.23;;;14.27;;
21420;SDS011;10871;50.144;8.428;2023-03-01T05:00:20;23.63;;;13.20;;
21420;SDS011;10871;50.144;8.428;2023-03-01T05:02:47;20.33;;;13.48;;
21420;SDS011;10871;50.144;8.428;2023-03-01T05:05:15;22.75;;;13.38;;
21420;SDS011;10871;50.144;8.428;2023-03-01T05:07:41;22.15;;;13.85;;
21420;SDS011;10871;50.144;8.428;2023-03-01T05:10:08;25.70;;;13.85;;
21420;SDS011;10871;50.144;8.428;2023-03-01T05:12:35;20.98;;;13.30;;
21420;SDS011;10871;50.144;8.428;2023-03-01T05:15:03;24.73;;;14.60;;
21420;SDS011;10871;50.144;8.428;2023-03-01T05:17:33;22.60;;;13.25;;
21420;SDS011;10871;50.144;8.428;2023-03-01T05:20:00;23.15;;;13.35;;
21420;SDS011;10871;50.144;8.428;2023-03-01T05:22:27;20.95;;;13.23;;
21420;SDS011;10871;50.144;8.428;2023-03-01T05:24:54;23.60;;;13.57;;
21420;SDS011;10871;50.144;8.428;2023-03-01T05:27:20;21.80;;;13.75;;
21420;SDS011;10871;50.144;8.428;2023-03-01T05:29:48;22.15;;;12.57;;
21420;SDS011;10871;50.144;8.428;2023-03-01T05:32:15;20.90;;;12.95;;
21420;SDS011;10871;50.144;8.428;2023-03-01T05:34:42;20.73;;;12.15;;
21420;SDS011;10871;50.144;8.428;2023-03-01T05:37:08;21.05;;;13.88;;
21420;SDS011;10871;50.144;8.428;2023-03-01T05:39:35;22.98;;;13.68;;
21420;SDS011;10871;50.144;8.428;2023-03-01T05:42:02;21.50;;;13.82;;
21420;SDS011;10871;50.144;8.428;2023-03-01T05:44:28;20.13;;;12.23;;
21420;SDS011;10871;50.144;8.428;2023-03-01T05:46:55;21.45;;;13.07;;
21420;SDS011;10871;50.144;8.428;2023-03-01T05:49:22;19.10;;;12.77;;
21420;SDS011;10871;50.144;8.428;2023-03-01T05:51:52;24.00;;;13.85;;
21420;SDS011;10871;50.144;8.428;2023-03-01T05:54:20;26.42;;;13.38;;
21420;SDS011;10871;50.144;8.428;2023-03-01T05:56:46;20.33;;;12.00;;
21420;SDS011;10871;50.144;8.428;2023-03-01T05:59:13;22.08;;;12.45;;
21420;SDS011;10871;50.144;8.428;2023-03-01T06:01:41;21.10;;;12.98;;
21420;SDS011;10871;50.144;8.428;2023-03-01T06:04:08;21.88;;;12.93;;
21420;SDS011;10871;50.144;8.428;2023-03-01T06:06:35;24.45;;;12.27;;
21420;SDS011;10871;50.144;8.428;2023-03-01T06:09:04;18.80;;;11.82;;
21420;SDS011;10871;50.144;8.428;2023-03-01T06:11:30;19.65;;;12.07;;
21420;SDS011;10871;50.144;8.428;2023-03-01T06:13:57;22.60;;;12.73;;
21420;SDS011;10871;50.144;8.428;2023-03-01T06:16:24;21.98;;;11.88;;
21420;SDS011;10871;50.144;8.428;2023-03-01T06:18:50;20.40;;;11.98;;
21420;SDS011;10871;50.144;8.428;2023-03-01T06:21:17;19.13;;;11.70;;
21420;SDS011;10871;50.144;8.428;2023-03-01T06:23:43;19.95;;;12.23;;
21420;SDS011;10871;50.144;8.428;2023-03-01T06:26:10;19.23;;;12.57;;
21420;SDS011;10871;50.144;8.428;2023-03-01T06:28:37;22.70;;;12.77;;
21420;SDS011;10871;50.144;8.428;2023-03-01T06:31:03;20.23;;;11.90;;
21420;SDS011;10871;50.144;8.428;2023-03-01T06:33:30;21.52;;;13.38;;
21420;SDS011;10871;50.144;8.428;2023-03-01T06:35:57;22.45;;;12.57;;
21420;SDS011;10871;50.144;8.428;2023-03-01T06:38:24;20.00;;;12.23;;
21420;SDS011;10871;50.144;8.428;2023-03-01T06:40:53;21.30;;;11.27;;
21420;SDS011;10871;50.144;8.428;2023-03-01T06:43:21;20.80;;;11.90;;
21420;SDS011;10871;50.144;8.428;2023-03-01T06:45:47;17.98;;;11.57;;
21420;SDS011;10871;50.144;8.428;2023-03-01T06:48:14;20.23;;;12.30;;
21420;SDS011;10871;50.144;8.428;2023-03-01T06:50:41;19.10;;;12.10;;
21420;SDS011;10871;50.144;8.428;2023-03-01T06:53:07;20.17;;;12.02;;
21420;SDS011;10871;50.144;8.428;2023-03-01T06:55:34;17.88;;;11.73;;
21420;SDS011;10871;50.144;8.428;2023-03-01T06:58:01;15.15;;;10.60;;
21420;SDS011;10871;50.144;8.428;2023-03-01T07:00:28;20.55;;;12.25;;
21420;SDS011;10871;50.144;8.428;2023-03-01T07:02:55;18.27;;;11.98;;
21420;SDS011;10871;50.144;8.428;2023-03-01T07:05:23;19.42;;;11.35;;
21420;SDS011;10871;50.144;8.428;2023-03-01T07:07:50;19.92;;;12.50;;
21420;SDS011;10871;50.144;8.428;2023-03-01T07:10:17;19.23;;;12.13;;
21420;SDS011;10871;50.144;8.428;2023-03-01T07:12:43;18.90;;;12.43;;
21420;SDS011;10871;50.144;8.428;2023-03-01T07:15:10;17.77;;;11.13;;
21420;SDS011;10871;50.144;8.428;2023-03-01T07:17:37;17.17;;;11.85;;
21420;SDS011;10871;50.144;8.428;2023-03-01T07:20:03;22.80;;;12.75;;
21420;SDS011;10871;50.144;8.428;2023-03-01T07:22:30;21.80;;;12.68;;
21420;SDS011;10871;50.144;8.428;2023-03-01T07:24:56;19.35;;;12.30;;
21420;SDS011;10871;50.144;8.428;2023-03-01T07:27:23;18.83;;;12.52;;
21420;SDS011;10871;50.144;8.428;2023-03-01T07:29:50;19.33;;;11.93;;
21420;SDS011;10871;50.144;8.428;2023-03-01T07:32:17;19.30;;;11.63;;
21420;SDS011;10871;50.144;8.428;2023-03-01T07:34:43;17.02;;;11.25;;
21420;SDS011;10871;50.144;8.428;2023-03-01T07:37:10;17.38;;;12.18;;
21420;SDS011;10871;50.144;8.428;2023-03-01T07:39:36;16.42;;;11.38;;
21420;SDS011;10871;50.144;8.428;2023-03-01T07:42:03;17.58;;;12.70;;
21420;SDS011;10871;50.144;8.428;2023-03-01T07:44:29;20.23;;;13.38;;
21420;SDS011;10871;50.144;8.428;2023-03-01T07:46:56;15.35;;;11.30;;
21420;SDS011;10871;50.144;8.428;2023-03-01T07:49:24;15.55;;;11.65;;
21420;SDS011;10871;50.144;8.428;2023-03-01T07:51:52;22.33;;;14.40;;
21420;SDS011;10871;50.144;8.428;2023-03-01T07:54:23;17.23;;;12.05;;
21420;SDS011;10871;50.144;8.428;2023-03-01T07:56:51;17.88;;;12.48;;
21420;SDS011;10871;50.144;8.428;2023-03-01T07:59:19;17.20;;;12.80;;
21420;SDS011;10871;50.144;8.428;2023-03-01T08:01:47;20.27;;;13.88;;
21420;SDS011;10871;50.144;8.428;2023-03-01T08:04:16;18.75;;;13.25;;
21420;SDS011;10871;50.144;8.428;2023-03-01T08:06:44;16.33;;;13.02;;
21420;SDS011;10871;50.144;8.428;2023-03-01T08:09:11;19.20;;;12.77;;
21420;SDS011;10871;50.144;8.428;2023-03-01T08:11:39;19.25;;;13.68;;
21420;SDS011;10871;50.144;8.428;2023-03-01T08:14:07;19.48;;;13.38;;
21420;SDS011;10871;50.144;8.428;2023-03-01T08:16:34;13.65;;;11.77;;
21420;SDS011;10871;50.144;8.428;2023-03-01T08:19:06;15.45;;;12.15;;
21420;SDS011;10871;50.144;8.428;2023-03-01T08:21:33;19.05;;;12.65;;
21420;SDS011;10871;50.144;8.428;2023-03-01T08:24:04;17.42;;;13.02;;
21420;SDS011;10871;50.144;8.428;2023-03-01T08:26:33;18.05;;;13.88;;
21420;SDS011;10871;50.144;8.428;2023-03-01T08:29:01;14.82;;;12.20;;
21420;SDS011;10871;50.144;8.428;2023-03-01T08:31:30;16.50;;;14.18;;
21420;SDS011;10871;50.144;8.428;2023-03-01T08:33:59;17.40;;;12.63;;
21420;SDS011;10871;50.144;8.428;2023-03-01T08:36:28;14.38;;;12.27;;
21420;SDS011;10871;50.144;8.428;2023-03-01T08:38:56;16.88;;;13.13;;
21420;SDS011;10871;50.144;8.428;2023-03-01T08:41:24;17.67;;;13.60;;
21420;SDS011;10871;50.144;8.428;2023-03-01T08:43:52;16.90;;;13.30;;
21420;SDS011;10871;50.144;8.428;2023-03-01T08:46:29;19.00;;;13.30;;
21420;SDS011;10871;50.144;8.428;2023-03-01T08:48:57;16.60;;;12.52;;
21420;SDS011;10871;50.144;8.428;2023-03-01T08:51:25;17.70;;;13.35;;
21420;SDS011;10871;50.144;8.428;2023-03-01T08:53:53;17.15;;;12.77;;
21420;SDS011;10871;50.144;8.428;2023-03-01T08:56:21;15.48;;;12.80;;
21420;SDS011;10871;50.144;8.428;2023-03-01T08:58:49;14.95;;;12.85;;
21420;SDS011;10871;50.144;8.428;2023-03-01T09:01:18;15.30;;;12.63;;
21420;SDS011;10871;50.144;8.428;2023-03-01T09:03:47;16.10;;;13.10;;
21420;SDS011;10871;50.144;8.428;2023-03-01T09:06:15;14.50;;;12.60;;
21420;SDS011;10871;50.144;8.428;2023-03-01T09:08:44;16.83;;;15.00;;
21420;SDS011;10871;50.144;8.428;2023-03-01T09:11:13;19.33;;;17.35;;
21420;SDS011;10871;50.144;8.428;2023-03-01T09:13:41;13.82;;;12.40;;
21420;SDS011;10871;50.144;8.428;2023-03-01T09:16:11;14.75;;;13.23;;
21420;SDS011;10871;50.144;8.428;2023-03-01T09:18:40;13.45;;;12.02;;
21420;SDS011;10871;50.144;8.428;2023-03-01T09:23:39;14.65;;;12.98;;
21420;SDS011;10871;50.144;8.428;2023-03-01T09:26:17;14.57;;;12.60;;
21420;SDS011;10871;50.144;8.428;2023-03-01T09:28:47;14.52;;;13.13;;
21420;SDS011;10871;50.144;8.428;2023-03-01T09:31:16;15.27;;;12.70;;
21420;SDS011;10871;50.144;8.428;2023-03-01T09:33:48;17.13;;;13.07;;
21420;SDS011;10871;50.144;8.428;2023-03-01T09:36:17;15.13;;;12.75;;
21420;SDS011;10871;50.144;8.428;2023-03-01T09:38:46;15.90;;;13.82;;
21420;SDS011;10871;50.144;8.428;2023-03-01T09:43:49;17.08;;;14.00;;
21420;SDS011;10871;50.144;8.428;2023-03-01T09:46:22;18.67;;;16.42;;
21420;SDS011;10871;50.144;8.428;2023-03-01T09:48:57;16.80;;;14.48;;
21420;SDS011;10871;50.144;8.428;2023-03-01T09:51:29;14.30;;;12.80;;
21420;SDS011;10871;50.144;8.428;2023-03-01T09:53:57;15.25;;;12.60;;
21420;SDS011;10871;50.144;8.428;2023-03-01T10:01:41;16.42;;;14.77;;
21420;SDS011;10871;50.144;8.428;2023-03-01T10:04:23;15.68;;;14.07;;
21420;SDS011;10871;50.144;8.428;2023-03-01T10:09:25;16.10;;;14.40;;
21420;SDS011;10871;50.144;8.428;2023-03-01T10:11:53;15.07;;;13.55;;
21420;SDS011;10871;50.144;8.428;2023-03-01T10:17:12;14.38;;;12.98;;
21420;SDS011;10871;50.144;8.428;2023-03-01T10:19:44;14.95;;;13.45;;
21420;SDS011;10871;50.144;8.428;2023-03-01T10:30:05;14.40;;;12.88;;
21420;SDS011;10871;50.144;8.428;2023-03-01T10:32:37;14.40;;;12.95;;
21420;SDS011;10871;50.144;8.428;2023-03-01T10:35:17;14.80;;;11.63;;
21420;SDS011;10871;50.144;8.428;2023-03-01T10:40:29;14.75;;;12.90;;
21420;SDS011;10871;50.144;8.428;2023-03-01T10:42:59;14.05;;;12.57;;
21420;SDS011;10871;50.144;8.428;2023-03-01T10:48:08;13.82;;;12.52;;
21420;SDS011;10871;50.144;8.428;2023-03-01T10:50:36;15.02;;;13.55;;
21420;SDS011;10871;50.144;8.428;2023-03-01T10:55:59;15.88;;;14.30;;
21420;SDS011;10871;50.144;8.428;2023-03-01T10:58:27;13.98;;;12.68;;
21420;SDS011;10871;50.144;8.428;2023-03-01T11:00:58;15.43;;;13.82;;
21420;SDS011;10871;50.144;8.428;2023-03-01T11:03:26;13.18;;;11.77;;
21420;SDS011;10871;50.144;8.428;2023-03-01T11:05:55;12.85;;;11.65;;
21420;SDS011;10871;50.144;8.428;2023-03-01T11:08:29;13.02;;;11.73;;
21420;SDS011;10871;50.144;8.428;2023-03-01T11:11:07;14.05;;;12.48;;
21420;SDS011;10871;50.144;8.428;2023-03-01T11:13:40;13.38;;;11.98;;
21420;SDS011;10871;50.144;8.428;2023-03-01T11:16:13;13.38;;;12.02;;
21420;SDS011;10871;50.144;8.428;2023-03-01T11:18:40;15.45;;;13.02;;
21420;SDS011;10871;50.144;8.428;2023-03-01T11:21:14;13.05;;;11.75;;
21420;SDS011;10871;50.144;8.428;2023-03-01T11:23:41;12.93;;;11.73;;
21420;SDS011;10871;50.144;8.428;2023-03-01T11:26:09;13.00;;;11.68;;
21420;SDS011;10871;50.144;8.428;2023-03-01T11:28:38;13.23;;;11.80;;
21420;SDS011;10871;50.144;8.428;2023-03-01T11:31:07;13.65;;;11.90;;
21420;SDS011;10871;50.144;8.428;2023-03-01T11:33:49;12.05;;;10.85;;
21420;SDS011;10871;50.144;8.428;2023-03-01T11:38:55;13.18;;;10.43;;
21420;SDS011;10871;50.144;8.428;2023-03-01T11:41:27;11.45;;;10.35;;
21420;SDS011;10871;50.144;8.428;2023-03-01T11:43:57;11.88;;;10.68;;
21420;SDS011;10871;50.144;8.428;2023-03-01T11:46:39;12.98;;;11.55;;
21420;SDS011;10871;50.144;8.428;2023-03-01T11:52:08;13.00;;;11.32;;
21420;SDS011;10871;50.144;8.428;2023-03-01T12:02:40;12.52;;;9.73;;
21420;SDS011;10871;50.144;8.428;2023-03-01T12:05:34;11.95;;;10.40;;
21420;SDS011;10871;50.144;8.428;2023-03-01T12:11:06;12.55;;;10.20;;
21420;SDS011;10871;50.144;8.428;2023-03-01T12:19:15;13.50;;;10.43;;
21420;SDS011;10871;50.144;8.428;2023-03-01T12:24:32;12.93;;;10.02;;
21420;SDS011;10871;50.144;8.428;2023-03-01T12:32:36;11.45;;;9.65;;
21420;SDS011;10871;50.144;8.428;2023-03-01T12:35:16;12.52;;;10.40;;
21420;SDS011;10871;50.144;8.428;2023-03-01T12:37:54;15.10;;;10.48;;
21420;SDS011;10871;50.144;8.428;2023-03-01T12:50:54;16.35;;;10.77;;
21420;SDS011;10871;50.144;8.428;2023-03-01T12:53:24;11.90;;;9.57;;
21420;SDS011;10871;50.144;8.428;2023-03-01T12:55:53;13.27;;;10.38;;
21420;SDS011;10871;50.144;8.428;2023-03-01T12:58:28;11.98;;;9.75;;
21420;SDS011;10871;50.144;8.428;2023-03-01T13:01:17;13.48;;;10.30;;
21420;SDS011;10871;50.144;8.428;2023-03-01T13:11:57;10.95;;;9.43;;
21420;SDS011;10871;50.144;8.428;2023-03-01T13:17:01;12.35;;;9.27;;
21420;SDS011;10871;50.144;8.428;2023-03-01T13:19:28;10.65;;;9.27;;
21420;SDS011;10871;50.144;8.428;2023-03-01T13:21:57;11.45;;;8.70;;
21420;SDS011;10871;50.144;8.428;2023-03-01T13:24:33;12.05;;;9.30;;
21420;SDS011;10871;50.144;8.428;2023-03-01T13:29:47;11.75;;;9.02;;
21420;SDS011;10871;50.144;8.428;2023-03-01T13:32:34;10.52;;;8.63;;
21420;SDS011;10871;50.144;8.428;2023-03-01T13:37:40;12.27;;;9.27;;
21420;SDS011;10871;50.144;8.428;2023-03-01T13:45:36;11.88;;;9.25;;
21420;SDS011;10871;50.144;8.428;2023-03-01T13:48:21;11.32;;;8.63;;
21420;SDS011;10871;50.144;8.428;2023-03-01T13:50:51;11.95;;;8.50;;
21420;SDS011;10871;50.144;8.428;2023-03-01T13:53:22;11.98;;;9.05;;
21420;SDS011;10871;50.144;8.428;2023-03-01T13:55:58;11.90;;;9.15;;
21420;SDS011;10871;50.144;8.428;2023-03-01T13:58:29;11.88;;;8.88;;
21420;SDS011;10871;50.144;8.428;2023-03-01T14:01:05;11.50;;;9.13;;
21420;SDS011;10871;50.144;8.428;2023-03-01T14:03:40;13.35;;;9.35;;
21420;SDS011;10871;50.144;8.428;2023-03-01T14:06:13;10.73;;;8.75;;
21420;SDS011;10871;50.144;8.428;2023-03-01T14:11:46;12.88;;;8.82;;
21420;SDS011;10871;50.144;8.428;2023-03-01T14:14:26;11.77;;;8.75;;
21420;SDS011;10871;50.144;8.428;2023-03-01T14:19:41;12.23;;;9.05;;
21420;SDS011;10871;50.144;8.428;2023-03-01T14:22:25;12.07;;;9.18;;
21420;SDS011;10871;50.144;8.428;2023-03-01T14:27:43;11.98;;;8.63;;
21420;SDS011;10871;50.144;8.428;2023-03-01T14:30:19;12.35;;;8.98;;
21420;SDS011;10871;50.144;8.428;2023-03-01T14:32:57;11.65;;;9.07;;
21420;SDS011;10871;50.144;8.428;2023-03-01T14:35:26;14.32;;;9.43;;
21420;SDS011;10871;50.144;8.428;2023-03-01T14:37:54;12.27;;;9.30;;
21420;SDS011;10871;50.144;8.428;2023-03-01T14:40:27;11.70;;;9.18;;
21420;SDS011;10871;50.144;8.428;2023-03-01T14:42:56;12.43;;;9.27;;
21420;SDS011;10871;50.144;8.428;2023-03-01T14:45:25;14.30;;;8.98;;
21420;SDS011;10871;50.144;8.428;2023-03-01T14:47:54;13.80;;;9.45;;
21420;SDS011;10871;50.144;8.428;2023-03-01T14:52:58;13.10;;;8.52;;
21420;SDS011;10871;50.144;8.428;2023-03-01T14:57:56;11.90;;;8.73;;
21420;SDS011;10871;50.144;8.428;2023-03-01T15:00:24;12.23;;;8.27;;
21420;SDS011;10871;50.144;8.428;2023-03-01T15:02:53;12.10;;;8.18;;
21420;SDS011;10871;50.144;8.428;2023-03-01T15:05:26;12.52;;;8.45;;
21420;SDS011;10871;50.144;8.428;2023-03-01T15:07:57;14.75;;;8.85;;
21420;SDS011;10871;50.144;8.428;2023-03-01T15:10:31;12.38;;;7.75;;
21420;SDS011;10871;50.144;8.428;2023-03-01T15:13:10;11.05;;;8.30;;
21420;SDS011;10871;50.144;8.428;2023-03-01T15:15:39;12.73;;;8.75;;
21420;SDS011;10871;50.144;8.428;2023-03-01T15:18:15;13.38;;;8.43;;
21420;SDS011;10871;50.144;8.428;2023-03-01T15:20:43;13.40;;;8.63;;
21420;SDS011;10871;50.144;8.428;2023-03-01T15:23:28;13.10;;;8.88;;
21420;SDS011;10871;50.144;8.428;2023-03-01T15:25:56;13.93;;;8.25;;
21420;SDS011;10871;50.144;8.428;2023-03-01T15:28:25;13.07;;;8.02;;
21420;SDS011;10871;50.144;8.428;2023-03-01T15:30:55;12.88;;;8.32;;
21420;SDS011;10871;50.144;8.428;2023-03-01T15:33:30;12.65;;;8.13;;
21420;SDS011;10871;50.144;8.428;2023-03-01T15:36:01;14.98;;;8.70;;
21420;SDS011;10871;50.144;8.428;2023-03-01T15:41:23;13.02;;;8.65;;
21420;SDS011;10871;50.144;8.428;2023-03-01T15:43:48;13.85;;;8.02;;
21420;SDS011;10871;50.144;8.428;2023-03-01T15:46:17;13.70;;;8.77;;
21420;SDS011;10871;50.144;8.428;2023-03-01T15:48:48;13.45;;;9.15;;
21420;SDS011;10871;50.144;8.428;2023-03-01T15:51:15;13.55;;;9.43;;
21420;SDS011;10871;50.144;8.428;2023-03-01T15:53:43;12.15;;;9.10;;
21420;SDS011;10871;50.144;8.428;2023-03-01T15:56:19;14.77;;;9.57;;
21420;SDS011;10871;50.144;8.428;2023-03-01T15:58:46;14.10;;;9.30;;
21420;SDS011;10871;50.144;8.428;2023-03-01T16:01:13;14.00;;;8.82;;
21420;SDS011;10871;50.144;8.428;2023-03-01T16:03:41;14.38;;;9.23;;
21420;SDS011;10871;50.144;8.428;2023-03-01T16:06:11;14.80;;;8.80;;
21420;SDS011;10871;50.144;8.428;2023-03-01T16:08:38;12.48;;;9.27;;
21420;SDS011;10871;50.144;8.428;2023-03-01T16:11:05;15.88;;;9.32;;
21420;SDS011;10871;50.144;8.428;2023-03-01T16:13:35;15.20;;;10.07;;
21420;SDS011;10871;50.144;8.428;2023-03-01T16:16:02;17.45;;;10.10;;
21420;SDS011;10871;50.144;8.428;2023-03-01T16:18:29;13.35;;;9.07;;
21420;SDS011;10871;50.144;8.428;2023-03-01T16:20:56;14.20;;;9.32;;
21420;SDS011;10871;50.144;8.428;2023-03-01T16:23:22;14.18;;;9.52;;
21420;SDS011;10871;50.144;8.428;2023-03-01T16:25:51;18.20;;;10.02;;
21420;SDS011;10871;50.144;8.428;2023-03-01T16:28:17;13.80;;;9.07;;
21420;SDS011;10871;50.144;8.428;2023-03-01T16:30:46;18.40;;;9.40;;
21420;SDS011;10871;50.144;8.428;2023-03-01T16:33:14;14.18;;;8.98;;
21420;SDS011;10871;50.144;8.428;2023-03-01T16:35:58;14.13;;;9.23;;